Time;durP1;ratioP1;P1;durP2;ratioP2;P2;SDS_P1;SDS_P2;PMS_P1;PMS_P2;Temp;Humidity;BMP_temperature;BMP_pressure;BME280_temperature;BME280_humidity;BME280_pressure;Samples;Min_cycle;Max_cycle;Signal;HPM_P1;HPM_P2
2021/04/18 00:00:44;;;;;;;6.45;4.43;;;8.00;73.20;;;;;;5084991;28;27339;-61
2021/04/18 00:04:10;;;;;;;6.25;4.53;;;7.90;74.00;;;;;;5085648;28;27518;-61
2021/04/18 00:07:23;;;;;;;8.25;4.57;;;8.00;73.40;;;;;;5084070;28;27434;-61
2021/04/18 00:10:20;;;;;;;6.35;4.32;;;7.90;73.40;;;;;;5085436;28;27370;-61
2021/04/18 00:13:27;;;;;;;7.20;3.92;;;7.90;73.30;;;;;;5081630;28;27451;-60
2021/04/18 00:16:55;;;;;;;8.65;4.93;;;7.90;73.30;;;;;;5084725;28;27456;-61
2021/04/18 00:19:53;;;;;;;5.57;4.10;;;7.90;73.40;;;;;;5084158;28;27360;-60
2021/04/18 00:23:20;;;;;;;6.47;4.35;;;7.90;73.40;;;;;;5084337;28;27395;-60
2021/04/18 00:26:47;;;;;;;9.55;4.63;;;7.90;73.30;;;;;;5084070;28;27444;-60
2021/04/18 00:30:14;;;;;;;6.38;3.88;;;7.90;73.50;;;;;;5084813;28;27476;-60
2021/04/18 00:34:02;;;;;;;5.30;4.50;;;7.90;73.70;;;;;;5085126;28;27391;-60
2021/04/18 00:37:37;;;;;;;7.47;4.88;;;7.80;73.50;;;;;;5085345;28;27449;-60
2021/04/18 00:41:36;;;;;;;7.22;4.70;;;7.80;73.60;;;;;;5084431;28;27474;-61
2021/04/18 00:44:55;;;;;;;6.25;5.00;;;7.80;73.70;;;;;;5085157;28;27423;-60
2021/04/18 00:47:53;;;;;;;7.45;4.72;;;7.80;73.80;;;;;;5084808;28;27335;-61
2021/04/18 00:51:26;;;;;;;6.20;4.28;;;7.80;73.90;;;;;;5082019;28;27608;-61
2021/04/18 00:54:54;;;;;;;7.95;4.45;;;7.80;74.00;;;;;;5083143;28;27455;-60
2021/04/18 00:58:45;;;;;;;8.80;5.05;;;7.80;74.70;;;;;;5084696;28;27344;-60
2021/04/18 01:01:56;;;;;;;7.45;4.55;;;7.80;73.90;;;;;;5084231;28;27350;-60
2021/04/18 01:05:07;;;;;;;5.80;4.43;;;7.70;73.90;;;;;;5084410;28;27462;-61
2021/04/18 01:08:36;;;;;;;6.35;4.57;;;7.80;74.00;;;;;;5083771;28;26954;-61
2021/04/18 01:12:08;;;;;;;8.95;4.78;;;7.70;74.20;;;;;;5083967;28;27458;-61
2021/04/18 01:15:07;;;;;;;6.63;4.93;;;7.70;74.20;;;;;;5082282;28;27656;-61
2021/04/18 01:18:35;;;;;;;8.55;5.13;;;7.70;74.00;;;;;;5083228;28;27485;-61
2021/04/18 01:22:03;;;;;;;5.30;4.43;;;7.70;74.20;;;;;;5082841;28;27347;-61
2021/04/18 01:25:29;;;;;;;5.43;4.78;;;7.70;74.20;;;;;;5080146;28;27317;-61
2021/04/18 01:29:23;;;;;;;7.72;5.32;;;7.70;74.50;;;;;;5080461;28;27444;-60
2021/04/18 01:32:50;;;;;;;5.95;4.78;;;7.70;74.50;;;;;;5082543;28;27372;-60
2021/04/18 01:36:46;;;;;;;5.70;4.25;;;7.60;74.50;;;;;;5080744;28;27375;-61
2021/04/18 01:40:00;;;;;;;6.45;4.18;;;7.60;74.50;;;;;;5082823;28;27340;-60
2021/04/18 01:43:27;;;;;;;6.07;5.10;;;7.60;74.50;;;;;;5080940;28;27443;-60
2021/04/18 01:46:42;;;;;;;6.78;4.70;;;7.60;74.50;;;;;;5082683;28;27374;-60
2021/04/18 01:49:55;;;;;;;7.93;5.72;;;7.60;74.50;;;;;;5082159;28;27587;-61
2021/04/18 01:53:06;;;;;;;7.45;5.20;;;7.60;74.70;;;;;;5083794;28;27475;-60
2021/04/18 01:56:27;;;;;;;7.93;4.65;;;7.60;74.70;;;;;;5083745;28;27387;-60
2021/04/18 01:59:40;;;;;;;10.55;4.95;;;7.60;75.40;;;;;;5079736;28;27471;-61
2021/04/18 02:03:45;;;;;;;5.75;4.93;;;7.60;74.70;;;;;;5083678;28;27329;-61
2021/04/18 02:07:17;;;;;;;6.93;5.03;;;7.60;74.60;;;;;;5079931;28;27393;-61
2021/04/18 02:10:17;;;;;;;7.78;5.40;;;7.60;74.50;;;;;;5080737;28;27368;-60
2021/04/18 02:13:33;;;;;;;8.00;5.40;;;7.60;74.50;;;;;;5079400;28;27407;-60
2021/04/18 02:17:20;;;;;;;5.70;4.65;;;7.60;74.50;;;;;;5089948;28;27569;-61
2021/04/18 02:21:04;;;;;;;7.60;5.38;;;7.60;74.50;;;;;;5079601;28;27426;-60
2021/04/18 02:24:26;;;;;;;6.22;5.00;;;7.60;74.50;;;;;;5093990;28;27378;-60
2021/04/18 02:27:53;;;;;;;6.18;4.97;;;7.60;74.50;;;;;;5083495;28;27487;-60
2021/04/18 02:31:28;;;;;;;6.55;4.82;;;7.60;74.50;;;;;;5080046;28;27367;-61
2021/04/18 02:34:21;;;;;;;9.07;5.30;;;7.60;74.50;;;;;;5064852;28;27524;-62
2021/04/18 02:37:35;;;;;;;6.47;5.32;;;7.50;74.60;;;;;;5082717;28;27396;-61
2021/04/18 02:40:47;;;;;;;5.35;4.85;;;7.50;74.80;;;;;;5078112;28;27519;-60
2021/04/18 02:44:14;;;;;;;6.45;4.85;;;7.60;74.80;;;;;;5066974;28;27332;-61
2021/04/18 02:47:21;;;;;;;5.95;4.50;;;7.50;74.70;;;;;;5079635;28;27450;-61
2021/04/18 02:50:39;;;;;;;6.25;5.60;;;7.50;74.70;;;;;;5083207;28;27383;-60
2021/04/18 02:53:51;;;;;;;6.95;4.90;;;7.50;74.70;;;;;;5079077;28;27430;-60
2021/04/18 02:57:18;;;;;;;8.65;5.38;;;7.50;74.70;;;;;;5080822;28;27498;-60
2021/04/18 03:00:31;;;;;;;5.30;4.80;;;7.50;74.80;;;;;;5079377;28;27439;-60
2021/04/18 03:03:59;;;;;;;9.10;5.18;;;7.50;74.80;;;;;;5079500;28;27450;-61
2021/04/18 03:07:44;;;;;;;9.43;4.80;;;7.40;74.90;;;;;;5079234;28;27429;-61
2021/04/18 03:11:17;;;;;;;5.90;5.30;;;7.40;74.70;;;;;;5079107;28;27371;-61
2021/04/18 03:14:47;;;;;;;7.35;5.40;;;7.40;74.90;;;;;;5078910;28;27359;-61
2021/04/18 03:18:29;;;;;;;6.25;5.22;;;7.40;74.90;;;;;;5079367;28;27466;-60
2021/04/18 03:21:37;;;;;;;5.72;4.70;;;7.40;74.70;;;;;;5081014;28;27376;-60
2021/04/18 03:24:25;;;;;;;7.93;5.18;;;7.40;74.70;;;;;;5082420;28;27325;-60
2021/04/18 03:27:38;;;;;;;6.00;5.28;;;7.40;74.60;;;;;;5078289;28;27470;-60
2021/04/18 03:31:26;;;;;;;5.97;5.18;;;7.40;74.70;;;;;;5078959;28;27374;-61
2021/04/18 03:35:14;;;;;;;6.78;5.28;;;7.40;74.70;;;;;;5079401;28;27441;-60
2021/04/18 03:39:01;;;;;;;7.05;5.20;;;7.40;74.70;;;;;;5078473;28;27413;-61
2021/04/18 03:42:43;;;;;;;6.38;5.40;;;7.40;74.70;;;;;;5078328;28;27442;-61
2021/04/18 03:46:11;;;;;;;5.78;5.15;;;7.40;74.90;;;;;;5078511;28;27452;-61
2021/04/18 03:49:36;;;;;;;7.13;5.65;;;7.40;74.70;;;;;;5078916;28;27280;-60
2021/04/18 03:52:43;;;;;;;8.38;5.57;;;7.40;74.70;;;;;;5085518;28;27369;-60
2021/04/18 03:55:58;;;;;;;6.97;5.35;;;7.40;74.70;;;;;;5081629;28;27372;-61
2021/04/18 03:59:35;;;;;;;5.70;5.03;;;7.40;74.60;;;;;;5085172;28;27336;-61
2021/04/18 04:03:03;;;;;;;7.00;5.50;;;7.40;74.50;;;;;;5085551;28;27518;-60
2021/04/18 04:06:38;;;;;;;7.18;6.03;;;7.40;74.70;;;;;;5084464;28;26947;-60
2021/04/18 04:10:22;;;;;;;6.72;5.40;;;7.30;74.60;;;;;;5084607;28;27482;-61
2021/04/18 04:13:50;;;;;;;6.97;5.63;;;7.40;74.60;;;;;;5081318;28;27864;-61
2021/04/18 04:17:39;;;;;;;9.63;6.03;;;7.30;74.60;;;;;;5081954;28;27374;-60
2021/04/18 04:21:34;;;;;;;8.52;6.22;;;7.30;74.70;;;;;;5083296;28;27438;-61
2021/04/18 04:25:16;;;;;;;7.70;6.05;;;7.30;74.70;;;;;;5082115;28;27403;-61
2021/04/18 04:28:41;;;;;;;6.63;5.85;;;7.30;75.00;;;;;;5084910;28;27329;-61
2021/04/18 04:32:09;;;;;;;7.75;5.53;;;7.30;74.80;;;;;;5081785;28;27406;-60
2021/04/18 04:36:10;;;;;;;6.88;5.45;;;7.30;74.80;;;;;;5081745;28;27388;-61
2021/04/18 04:39:21;;;;;;;8.50;6.88;;;7.30;74.80;;;;;;5083658;28;27383;-61
2021/04/18 04:42:22;;;;;;;7.40;6.18;;;7.30;75.10;;;;;;5084609;28;27408;-61
2021/04/18 04:45:35;;;;;;;9.25;6.18;;;7.20;75.00;;;;;;5084906;28;27393;-60
2021/04/18 04:49:03;;;;;;;7.65;6.47;;;7.20;75.20;;;;;;5084831;28;27387;-61
2021/04/18 04:52:50;;;;;;;7.90;5.80;;;7.20;75.30;;;;;;5084531;28;27651;-60
2021/04/18 05:39:24;;;;;;;20.15;7.75;;;7.00;76.60;;;;;;5119461;27;28386;-60
2021/04/18 05:42:42;;;;;;;10.27;8.02;;;7.00;77.30;;;;;;5121024;27;27386;-60
2021/04/18 05:45:55;;;;;;;9.50;7.40;;;7.00;77.40;;;;;;5120689;27;27485;-60
2021/04/18 05:49:26;;;;;;;12.55;8.13;;;7.10;77.50;;;;;;5120746;27;27347;-61
2021/04/18 05:58:35;;;;;;;12.00;8.18;;;7.20;76.80;;;;;;5108423;27;908303;-60
2021/04/18 06:02:06;;;;;;;12.18;8.18;;;7.20;78.00;;;;;;5120567;27;27496;-61
2021/04/18 06:05:13;;;;;;;8.48;7.47;;;7.20;76.70;;;;;;5120683;27;27411;-61
2021/04/18 06:08:11;;;;;;;10.07;8.05;;;7.30;76.60;;;;;;5120814;27;27379;-61
2021/04/18 06:11:24;;;;;;;10.55;8.73;;;7.30;76.40;;;;;;5120608;27;27419;-60
2021/04/18 06:14:30;;;;;;;10.07;8.73;;;7.30;76.40;;;;;;5120792;27;27473;-60
2021/04/18 06:17:57;;;;;;;11.10;8.30;;;7.40;77.70;;;;;;5120294;27;27415;-61
2021/04/18 06:21:09;;;;;;;12.30;9.63;;;7.40;76.90;;;;;;5120562;27;27427;-61
2021/04/18 06:24:27;;;;;;;10.20;8.25;;;7.50;77.00;;;;;;5120468;27;27478;-61
2021/04/18 06:27:55;;;;;;;10.35;8.52;;;7.50;77.00;;;;;;5119126;27;27471;-61
2021/04/18 06:31:42;;;;;;;9.75;8.48;;;7.50;77.00;;;;;;5117364;27;27390;-61
2021/04/18 06:35:30;;;;;;;11.52;8.48;;;7.60;77.40;;;;;;5120220;27;27462;-60
2021/04/18 06:38:44;;;;;;;11.85;9.05;;;7.60;77.20;;;;;;5120497;27;27938;-61
2021/04/18 06:41:53;;;;;;;10.07;7.72;;;7.60;77.00;;;;;;5120052;27;27506;-61
2021/04/18 06:45:23;;;;;;;13.55;8.77;;;7.70;77.50;;;;;;5120233;27;27455;-61
2021/04/18 06:48:28;;;;;;;10.68;8.35;;;7.70;77.70;;;;;;5117924;27;27451;-61
2021/04/18 06:51:36;;;;;;;11.43;9.35;;;7.80;77.80;;;;;;5120307;27;27475;-61
2021/04/18 06:55:03;;;;;;;10.68;8.68;;;7.80;78.00;;;;;;5119699;27;27400;-61
2021/04/18 06:58:11;;;;;;;12.15;9.02;;;7.90;77.90;;;;;;5119635;27;27449;-61
2021/04/18 07:01:24;;;;;;;12.02;9.57;;;7.90;77.80;;;;;;5120221;27;27351;-61
2021/04/18 07:04:20;;;;;;;13.65;9.38;;;7.90;77.80;;;;;;5119757;27;27338;-61
2021/04/18 07:07:30;;;;;;;11.48;9.07;;;8.00;77.50;;;;;;5117898;27;27499;-61
2021/04/18 07:10:42;;;;;;;11.00;8.93;;;8.00;77.60;;;;;;5105799;28;27584;-60
2021/04/18 07:13:48;;;;;;;12.27;9.63;;;8.00;77.50;;;;;;5101952;28;27414;-61
2021/04/18 07:17:05;;;;;;;12.05;9.65;;;8.00;76.90;;;;;;5105894;28;27423;-60
2021/04/18 07:20:12;;;;;;;16.40;10.32;;;8.00;77.00;;;;;;5105328;28;27469;-61
2021/04/18 07:23:29;;;;;;;10.38;8.38;;;8.00;77.20;;;;;;5105594;28;27626;-61
2021/04/18 07:26:53;;;;;;;10.70;8.60;;;8.00;77.50;;;;;;5105589;28;27401;-60
2021/04/18 07:30:20;;;;;;;12.75;10.48;;;8.00;77.60;;;;;;5104802;28;27406;-60
2021/04/18 07:33:51;;;;;;;13.27;10.02;;;8.10;77.60;;;;;;5102531;28;27400;-60
2021/04/18 07:37:09;;;;;;;11.88;9.25;;;8.10;77.20;;;;;;5103009;28;27486;-61
2021/04/18 07:40:00;;;;;;;13.80;9.15;;;8.20;77.60;;;;;;5104295;28;27340;-61
2021/04/18 07:43:07;;;;;;;10.65;8.70;;;8.20;77.70;;;;;;5104693;28;27434;-60
2021/04/18 07:46:12;;;;;;;12.77;9.07;;;8.20;78.20;;;;;;5102325;28;27473;-60
2021/04/18 07:49:39;;;;;;;10.73;9.02;;;8.30;77.50;;;;;;5105487;28;27481;-60
2021/04/18 07:53:23;;;;;;;12.88;9.25;;;8.40;78.00;;;;;;5101877;28;27332;-60
2021/04/18 07:56:23;;;;;;;12.38;8.88;;;8.50;77.90;;;;;;5087164;28;27776;-60
2021/04/18 07:59:51;;;;;;;9.43;8.10;;;8.60;77.60;;;;;;5105563;28;27497;-60
2021/04/18 08:03:05;;;;;;;10.52;8.02;;;8.60;77.20;;;;;;5105311;28;27439;-60
2021/04/18 08:06:33;;;;;;;12.05;8.55;;;8.60;77.10;;;;;;5105160;28;27418;-60
2021/04/18 08:10:43;;;;;;;10.98;7.78;;;8.70;76.90;;;;;;5101857;28;27442;-60
2021/04/18 08:13:37;;;;;;;11.98;9.02;;;8.80;77.20;;;;;;5104595;28;27650;-59
2021/04/18 08:16:32;;;;;;;9.82;8.45;;;8.90;76.60;;;;;;5104893;28;27407;-59
2021/04/18 08:20:15;;;;;;;11.35;8.80;;;9.00;76.80;;;;;;5103695;27;27383;-60
2021/04/18 08:24:26;;;;;;;10.30;8.00;;;9.00;76.90;;;;;;5062370;28;27928;-60
2021/04/18 08:27:40;;;;;;;12.65;8.63;;;9.00;76.60;;;;;;5049203;28;27458;-59
2021/04/18 08:31:01;;;;;;;15.88;8.50;;;9.00;75.50;;;;;;5063016;28;27459;-60
2021/04/18 08:34:10;;;;;;;9.88;8.55;;;9.00;76.20;;;;;;5046025;28;27402;-60
2021/04/18 08:37:25;;;;;;;11.30;8.38;;;9.00;76.60;;;;;;5048518;28;27441;-59
2021/04/18 08:40:36;;;;;;;11.95;8.00;;;9.00;76.50;;;;;;5063012;28;27527;-60
2021/04/18 08:43:48;;;;;;;12.20;8.90;;;9.00;77.30;;;;;;5061616;28;27385;-60
2021/04/18 08:46:55;;;;;;;11.10;8.32;;;9.10;77.60;;;;;;5062223;28;27504;-60
2021/04/18 08:49:45;;;;;;;12.30;9.10;;;9.20;77.60;;;;;;5062830;28;27468;-60
2021/04/18 08:52:52;;;;;;;11.93;9.60;;;9.20;77.00;;;;;;5062861;28;27519;-60
2021/04/18 08:55:54;;;;;;;12.88;9.63;;;9.20;76.40;;;;;;5052192;27;28152;-61
2021/04/18 08:58:55;;;;;;;13.18;9.43;;;9.20;76.40;;;;;;5126046;27;27411;-60
2021/04/18 09:02:03;;;;;;;12.27;8.65;;;9.20;76.40;;;;;;5125632;27;27841;-61
2021/04/18 09:04:58;;;;;;;11.80;9.23;;;9.20;76.30;;;;;;5122396;27;27391;-60
2021/04/18 09:08:10;;;;;;;11.90;9.75;;;9.20;76.00;;;;;;5125473;27;27446;-60
2021/04/18 09:11:42;;;;;;;12.75;10.13;;;9.20;75.90;;;;;;5124189;27;27340;-60
2021/04/18 09:15:01;;;;;;;12.75;10.30;;;9.10;76.20;;;;;;5124776;27;27418;-60
2021/04/18 09:18:29;;;;;;;12.52;10.05;;;9.10;76.60;;;;;;5121867;27;27406;-60
2021/04/18 09:21:58;;;;;;;14.25;9.40;;;9.10;75.90;;;;;;5122394;27;26856;-61
2021/04/18 09:24:57;;;;;;;15.23;10.85;;;9.10;76.10;;;;;;5125337;27;27419;-60
2021/04/18 09:27:45;;;;;;;12.25;10.00;;;9.00;76.60;;;;;;5125576;27;27381;-60
2021/04/18 09:31:13;;;;;;;14.57;10.10;;;9.00;77.10;;;;;;5124874;27;27458;-60
2021/04/18 09:34:35;;;;;;;14.27;10.63;;;8.90;77.30;;;;;;5125189;27;27475;-60
2021/04/18 09:38:03;;;;;;;15.95;10.63;;;8.90;77.10;;;;;;5124829;27;27467;-60
2021/04/18 09:41:12;;;;;;;15.98;9.95;;;8.90;77.00;;;;;;5122367;27;27452;-60
2021/04/18 09:44:33;;;;;;;16.52;10.80;;;8.90;76.70;;;;;;5109705;27;27500;-60
2021/04/18 09:47:45;;;;;;;13.55;10.45;;;8.90;76.50;;;;;;5125402;27;27466;-61
2021/04/18 09:51:08;;;;;;;13.38;9.77;;;8.90;76.80;;;;;;5106422;27;27395;-60
2021/04/18 09:54:32;;;;;;;14.55;10.45;;;8.90;77.00;;;;;;5124930;27;27499;-60
2021/04/18 09:57:30;;;;;;;17.23;10.55;;;8.90;76.70;;;;;;5123838;27;27413;-59
2021/04/18 10:00:21;;;;;;;19.23;10.52;;;8.90;77.20;;;;;;5106745;27;27465;-60
2021/04/18 10:03:35;;;;;;;13.27;9.60;;;8.90;77.90;;;;;;5125107;27;27311;-60
2021/04/18 10:06:47;;;;;;;15.02;9.00;;;9.00;79.00;;;;;;5124795;27;27937;-60
2021/04/18 10:10:28;;;;;;;16.67;9.60;;;9.10;78.30;;;;;;5123962;27;27507;-60
2021/04/18 10:13:42;;;;;;;17.55;9.73;;;9.10;77.40;;;;;;5124723;27;27418;-60
2021/04/18 10:16:46;;;;;;;15.00;10.15;;;9.20;77.10;;;;;;5124504;27;27332;-60
2021/04/18 10:20:14;;;;;;;19.80;9.98;;;9.30;78.00;;;;;;5124877;27;27395;-60
2021/04/18 10:23:57;;;;;;;18.60;10.27;;;9.50;77.70;;;;;;5124339;27;27333;-60
2021/04/18 10:27:21;;;;;;;13.95;8.95;;;9.60;77.10;;;;;;5124889;27;27370;-60
2021/04/18 10:30:36;;;;;;;13.57;8.55;;;9.70;76.90;;;;;;5124882;27;27329;-61
2021/04/18 10:33:47;;;;;;;14.85;10.48;;;9.80;77.40;;;;;;5121113;27;27386;-60
2021/04/18 10:36:57;;;;;;;14.95;9.15;;;10.00;76.80;;;;;;5122163;27;27468;-60
2021/04/18 10:40:27;;;;;;;12.00;9.10;;;10.00;74.90;;;;;;5124069;27;27410;-60
2021/04/18 10:44:01;;;;;;;16.63;9.38;;;10.10;75.50;;;;;;5125946;27;27331;-61
2021/04/18 10:47:48;;;;;;;16.08;9.30;;;10.20;75.20;;;;;;5127780;27;27888;-60
2021/04/18 10:51:03;;;;;;;15.63;11.57;;;10.30;75.20;;;;;;5127710;27;27469;-61
2021/04/18 10:54:00;;;;;;;14.70;10.18;;;10.40;76.20;;;;;;5112921;27;27447;-61
2021/04/18 10:57:27;;;;;;;15.30;9.27;;;10.40;75.40;;;;;;5090850;28;28009;-60
2021/04/18 11:00:42;;;;;;;18.50;10.20;;;10.40;75.50;;;;;;5103709;28;27393;-60
2021/04/18 11:04:10;;;;;;;15.73;9.93;;;10.40;74.60;;;;;;5106180;28;27560;-60
2021/04/18 11:07:47;;;;;;;17.30;12.15;;;10.30;74.30;;;;;;5107340;28;27395;-60
2021/04/18 11:10:47;;;;;;;15.73;9.95;;;10.20;74.80;;;;;;5107186;28;27410;-60
2021/04/18 11:14:19;;;;;;;16.83;11.25;;;10.20;74.20;;;;;;5106086;28;27829;-60
2021/04/18 11:17:30;;;;;;;24.40;14.20;;;10.10;73.80;;;;;;5106131;28;27403;-60
2021/04/18 11:20:32;;;;;;;20.17;12.18;;;10.00;73.80;;;;;;5106402;28;27473;-60
2021/04/18 11:23:37;;;;;;;18.83;11.98;;;10.00;74.40;;;;;;5106259;28;27465;-60
2021/04/18 11:26:48;;;;;;;17.40;10.90;;;9.90;74.00;;;;;;5106614;28;27378;-59
2021/04/18 11:30:03;;;;;;;22.77;11.27;;;9.80;74.70;;;;;;5105223;28;27410;-60
2021/04/18 11:33:28;;;;;;;18.75;11.32;;;9.80;74.00;;;;;;5106172;28;27628;-59
2021/04/18 11:36:34;;;;;;;15.80;10.98;;;9.70;74.40;;;;;;5106689;28;27459;-60
2021/04/18 11:39:40;;;;;;;16.63;10.85;;;9.70;74.50;;;;;;5106711;28;27374;-59
2021/04/18 11:42:54;;;;;;;17.27;11.95;;;9.70;75.20;;;;;;5106452;28;27413;-60
2021/04/18 11:46:09;;;;;;;27.95;12.73;;;9.70;75.20;;;;;;5102795;28;27330;-60
2021/04/18 11:49:23;;;;;;;20.92;11.00;;;9.80;74.60;;;;;;5076227;28;27540;-60
2021/04/18 11:52:50;;;;;;;21.77;11.60;;;9.80;75.00;;;;;;5106294;28;27464;-60
2021/04/18 11:55:45;;;;;;;18.67;11.82;;;9.80;74.90;;;;;;5104796;27;27394;-61
2021/04/18 11:59:12;;;;;;;18.63;12.27;;;9.90;75.50;;;;;;5109688;27;27394;-60
2021/04/18 12:02:46;;;;;;;18.13;11.15;;;9.90;75.30;;;;;;5108001;27;27387;-60
2021/04/18 12:06:03;;;;;;;19.02;10.85;;;9.90;75.70;;;;;;5126737;27;27372;-60
2021/04/18 12:09:29;;;;;;;19.73;10.43;;;9.90;75.70;;;;;;5126461;27;27481;-60
2021/04/18 12:12:43;;;;;;;20.08;10.65;;;9.90;75.30;;;;;;5124853;27;27494;-59
2021/04/18 12:16:02;;;;;;;19.65;10.88;;;9.90;75.70;;;;;;5122949;27;27466;-60
2021/04/18 12:19:07;;;;;;;18.10;10.82;;;10.00;75.50;;;;;;5126226;27;27519;-59
2021/04/18 12:22:21;;;;;;;17.05;10.82;;;10.10;75.70;;;;;;5125942;27;27400;-60
2021/04/18 12:25:26;;;;;;;21.90;13.60;;;10.20;75.50;;;;;;5122923;27;27337;-60
2021/04/18 12:28:37;;;;;;;21.67;11.48;;;10.20;75.40;;;;;;5126110;27;27464;-60
2021/04/18 12:31:50;;;;;;;17.30;12.07;;;10.30;75.80;;;;;;5124484;27;27320;-60
2021/04/18 12:35:03;;;;;;;16.98;10.05;;;10.40;76.90;;;;;;5126154;27;27364;-60
2021/04/18 12:38:14;;;;;;;16.25;10.82;;;10.50;76.40;;;;;;5126199;27;27455;-60
2021/04/18 12:41:41;;;;;;;16.25;11.27;;;10.60;76.20;;;;;;5124536;27;27485;-60
2021/04/18 12:45:07;;;;;;;17.40;11.82;;;10.70;76.60;;;;;;5125968;27;27476;-60
2021/04/18 12:48:13;;;;;;;26.38;15.02;;;10.90;76.30;;;;;;5126274;27;27423;-61
2021/04/18 12:51:27;;;;;;;17.80;11.93;;;10.90;75.90;;;;;;5125913;27;27420;-61
2021/04/18 12:54:26;;;;;;;21.63;11.57;;;10.90;75.00;;;;;;5124193;27;27414;-60
2021/04/18 12:57:45;;;;;;;17.95;10.85;;;10.90;74.90;;;;;;5125009;27;27385;-60
2021/04/18 13:00:31;;;;;;;20.98;10.80;;;11.00;75.00;;;;;;5125900;27;27403;-61
2021/04/18 13:03:44;;;;;;;17.88;12.38;;;11.00;75.60;;;;;;5110474;27;27430;-60
2021/04/18 13:06:56;;;;;;;26.85;12.23;;;11.00;73.90;;;;;;5124976;27;27428;-60
2021/04/18 13:10:27;;;;;;;20.92;12.25;;;11.00;74.40;;;;;;5123917;27;27382;-60
2021/04/18 13:13:40;;;;;;;21.38;11.73;;;11.10;75.10;;;;;;5125809;27;27593;-60
2021/04/18 13:17:08;;;;;;;17.08;11.25;;;11.20;74.60;;;;;;5125472;27;27425;-60
2021/04/18 13:20:39;;;;;;;16.38;10.93;;;11.20;74.90;;;;;;5125394;27;27415;-60
2021/04/18 13:23:55;;;;;;;18.83;10.45;;;11.40;75.40;;;;;;5125508;27;27833;-60
2021/04/18 13:26:53;;;;;;;20.92;10.55;;;11.50;73.50;;;;;;5125345;27;27493;-60
2021/04/18 13:30:21;;;;;;;26.08;11.23;;;11.60;74.80;;;;;;5125205;27;27348;-60
2021/04/18 13:33:51;;;;;;;22.23;9.88;;;11.60;73.70;;;;;;5121959;27;27406;-59
2021/04/18 13:36:56;;;;;;;18.10;10.82;;;11.60;71.80;;;;;;5123633;27;27833;-59
2021/04/18 13:40:02;;;;;;;17.20;10.25;;;11.60;70.90;;;;;;5108960;27;27515;-60
2021/04/18 13:42:47;;;;;;;13.00;9.63;;;11.50;71.80;;;;;;5124754;27;27473;-60
2021/04/18 13:46:15;;;;;;;18.42;9.95;;;11.50;73.70;;;;;;5125438;27;27363;-60
2021/04/18 13:49:53;;;;;;;16.85;10.68;;;11.50;73.40;;;;;;5124555;27;27423;-60
2021/04/18 13:53:21;;;;;;;14.48;9.85;;;11.50;72.90;;;;;;5124770;27;27347;-60
2021/04/18 13:56:32;;;;;;;16.63;9.88;;;11.50;73.30;;;;;;5124065;27;27486;-60
2021/04/18 13:59:25;;;;;;;14.20;9.63;;;11.50;72.10;;;;;;5088038;28;27353;-60
2021/04/18 14:02:52;;;;;;;17.05;9.85;;;11.50;71.60;;;;;;5104454;28;27838;-60
2021/04/18 14:06:14;;;;;;;20.38;10.00;;;11.50;72.30;;;;;;5104105;28;27569;-60
2021/04/18 14:09:25;;;;;;;13.88;9.10;;;11.50;71.60;;;;;;5104550;28;26912;-60
2021/04/18 14:12:27;;;;;;;13.38;9.32;;;11.50;71.70;;;;;;5104142;28;27569;-60
2021/04/18 14:15:40;;;;;;;16.02;9.45;;;11.50;72.40;;;;;;5085859;28;28033;-60
2021/04/18 14:18:54;;;;;;;12.82;8.88;;;11.50;73.10;;;;;;5105870;27;27381;-60
2021/04/18 14:22:05;;;;;;;14.55;9.10;;;11.60;72.00;;;;;;5107763;28;27415;-60
2021/04/18 14:25:02;;;;;;;14.20;8.70;;;11.60;71.60;;;;;;5107679;28;27444;-60
2021/04/18 14:28:33;;;;;;;16.67;10.00;;;11.60;72.00;;;;;;5107636;28;27478;-60
2021/04/18 14:32:09;;;;;;;12.90;8.40;;;11.60;72.00;;;;;;5104206;28;27478;-60
2021/04/18 14:35:16;;;;;;;16.67;8.95;;;11.60;72.10;;;;;;5107766;28;27454;-60
2021/04/18 14:38:27;;;;;;;15.73;9.20;;;11.60;72.50;;;;;;5107459;28;27459;-61
2021/04/18 14:41:58;;;;;;;14.73;9.27;;;11.60;72.60;;;;;;5106791;28;27965;-60
2021/04/18 14:45:24;;;;;;;15.38;8.07;;;11.60;72.30;;;;;;5105710;28;27490;-60
2021/04/18 14:48:24;;;;;;;13.40;8.30;;;11.50;71.70;;;;;;5107207;28;27367;-60
2021/04/18 14:51:51;;;;;;;10.57;8.70;;;11.50;72.50;;;;;;5107164;28;27480;-60
2021/04/18 14:55:40;;;;;;;13.80;9.30;;;11.50;72.80;;;;;;5107151;28;27443;-60
2021/04/18 14:58:46;;;;;;;11.45;8.23;;;11.40;71.80;;;;;;5106939;28;27380;-60
2021/04/18 15:01:51;;;;;;;13.57;8.88;;;11.40;72.10;;;;;;5107103;28;27359;-60
2021/04/18 15:05:05;;;;;;;17.98;9.32;;;11.30;72.10;;;;;;5090550;28;27399;-60
2021/04/18 15:08:32;;;;;;;12.15;8.30;;;11.40;71.70;;;;;;5106997;28;27324;-60
2021/04/18 15:11:54;;;;;;;15.27;9.55;;;11.30;71.30;;;;;;5105065;28;27589;-60
2021/04/18 15:15:22;;;;;;;16.20;9.35;;;11.30;71.90;;;;;;5103483;28;27448;-60
2021/04/18 15:18:57;;;;;;;13.05;8.10;;;11.30;71.90;;;;;;5103484;28;27455;-60
2021/04/18 15:22:43;;;;;;;12.77;9.13;;;11.30;71.50;;;;;;5106684;28;27413;-60
2021/04/18 15:26:13;;;;;;;13.00;8.27;;;11.30;71.20;;;;;;5090960;28;27499;-61
2021/04/18 15:29:50;;;;;;;17.02;10.93;;;11.30;71.00;;;;;;5087577;28;27436;-60
2021/04/18 15:33:17;;;;;;;14.30;9.25;;;11.40;71.10;;;;;;5106851;28;27387;-60
2021/04/18 15:37:14;;;;;;;21.52;11.75;;;11.30;70.60;;;;;;5102959;28;27315;-60
2021/04/18 15:40:31;;;;;;;17.95;10.63;;;11.30;71.10;;;;;;5106620;28;27395;-60
2021/04/18 15:43:37;;;;;;;18.48;12.45;;;11.30;70.40;;;;;;5088091;28;27007;-61
2021/04/18 15:47:05;;;;;;;19.33;12.93;;;11.30;71.20;;;;;;5106188;28;27473;-60
2021/04/18 15:50:38;;;;;;;18.30;11.13;;;11.20;70.90;;;;;;5106214;28;27470;-60
2021/04/18 15:54:08;;;;;;;16.80;10.80;;;11.20;71.80;;;;;;5102828;28;27410;-60
2021/04/18 15:57:36;;;;;;;18.58;11.65;;;11.20;71.60;;;;;;5105315;28;27381;-60
2021/04/18 16:01:36;;;;;;;18.05;10.98;;;11.10;71.80;;;;;;5105005;28;27400;-60
2021/04/18 16:04:43;;;;;;;13.98;9.50;;;11.10;71.80;;;;;;5105780;28;27337;-59
2021/04/18 16:08:05;;;;;;;14.48;8.95;;;11.00;71.80;;;;;;5105435;28;27383;-60
2021/04/18 16:11:33;;;;;;;19.23;9.07;;;11.00;71.30;;;;;;5106031;28;27363;-60
2021/04/18 16:14:54;;;;;;;15.15;9.23;;;11.00;71.20;;;;;;5105639;28;27370;-60
2021/04/18 16:17:41;;;;;;;42.03;25.98;;;11.00;71.70;;;;;;5105616;28;27333;-60
2021/04/18 16:21:08;;;;;;;15.50;10.02;;;11.00;72.90;;;;;;5090497;28;27617;-60
2021/04/18 16:24:35;;;;;;;19.40;11.43;;;11.00;72.10;;;;;;5105721;28;27373;-61
2021/04/18 16:28:22;;;;;;;16.00;11.02;;;11.00;71.60;;;;;;5087054;28;27487;-60
2021/04/18 16:31:22;;;;;;;23.88;15.55;;;10.90;71.10;;;;;;5105569;28;27931;-60
2021/04/18 16:34:49;;;;;;;17.60;10.77;;;10.90;70.90;;;;;;5105095;28;27339;-60
2021/04/18 16:38:43;;;;;;;16.23;9.27;;;10.90;70.90;;;;;;5092410;28;27515;-60
2021/04/18 16:41:54;;;;;;;14.98;9.23;;;10.80;70.80;;;;;;5104435;27;27326;-60
2021/04/18 16:45:08;;;;;;;15.85;9.77;;;10.80;71.30;;;;;;5103823;28;27423;-60
2021/04/18 16:48:39;;;;;;;17.73;9.45;;;10.70;70.60;;;;;;5102301;28;27478;-60
2021/04/18 16:52:06;;;;;;;15.43;9.73;;;10.70;71.00;;;;;;5105182;28;27448;-60
2021/04/18 16:55:29;;;;;;;16.27;9.68;;;10.60;70.90;;;;;;5104834;28;27481;-60
2021/04/18 16:58:42;;;;;;;18.27;9.90;;;10.60;71.20;;;;;;5064735;28;27969;-60
2021/04/18 17:01:56;;;;;;;22.45;10.60;;;10.60;71.20;;;;;;5063947;28;27601;-60
2021/04/18 17:04:54;;;;;;;13.50;8.88;;;10.50;71.10;;;;;;5064406;28;27343;-59
2021/04/18 17:07:59;;;;;;;12.73;9.02;;;10.50;71.10;;;;;;5064298;28;27525;-60
2021/04/18 17:11:26;;;;;;;16.42;10.00;;;10.50;71.70;;;;;;5064574;28;27992;-60
2021/04/18 17:15:13;;;;;;;13.88;9.43;;;10.40;70.90;;;;;;5063959;28;27473;-60
2021/04/18 17:18:44;;;;;;;16.05;9.57;;;10.40;71.40;;;;;;5062819;28;27407;-60
2021/04/18 17:22:10;;;;;;;16.00;9.27;;;10.40;71.50;;;;;;5063815;28;27327;-60
2021/04/18 17:25:16;;;;;;;14.68;9.73;;;10.30;71.50;;;;;;5064018;28;27469;-60
2021/04/18 17:28:23;;;;;;;18.80;11.07;;;10.30;72.40;;;;;;5063329;28;27440;-60
2021/04/18 17:31:29;;;;;;;29.42;14.38;;;10.30;71.20;;;;;;5064081;28;27423;-60
2021/04/18 17:34:56;;;;;;;67.18;34.03;;;10.30;71.70;;;;;;5062953;28;27567;-60
2021/04/18 17:37:57;;;;;;;95.57;52.83;;;10.20;71.70;;;;;;5063571;28;27411;-60
2021/04/18 17:40:44;;;;;;;70.97;39.03;;;10.20;71.60;;;;;;5060140;28;27511;-62
2021/04/18 17:44:05;;;;;;;43.78;25.20;;;10.20;72.00;;;;;;5076810;28;27349;-59
2021/04/18 17:47:00;;;;;;;20.50;13.98;;;10.20;71.70;;;;;;5063842;28;27404;-60
2021/04/18 17:49:52;;;;;;;24.83;15.60;;;10.20;71.70;;;;;;5064205;28;27436;-59
2021/04/18 17:53:19;;;;;;;29.17;17.00;;;10.10;72.00;;;;;;5059389;28;27437;-59
2021/04/18 17:57:04;;;;;;;27.77;17.45;;;10.10;72.00;;;;;;5074500;28;27890;-60
2021/04/18 17:59:56;;;;;;;30.65;16.70;;;10.10;72.10;;;;;;5104536;28;27493;-59
2021/04/18 18:03:24;;;;;;;27.45;16.40;;;10.10;72.10;;;;;;5104269;28;27332;-60